Time;durP1;ratioP1;P1;durP2;ratioP2;P2;SDS_P1;SDS_P2;PMS_P1;PMS_P2;Temp;Humidity;BMP_temperature;BMP_pressure;BME280_temperature;BME280_humidity;BME280_pressure;Samples;Min_cycle;Max_cycle;Signal;HPM_P1;HPM_P2
2022/07/01 00:02:00;;;;;;;10.10;8.52;;;20.80;99.90;;;;;;5034613;28;20025;-79
2022/07/01 00:04:27;;;;;;;10.95;8.68;;;20.80;99.90;;;;;;5034294;28;20021;-79
2022/07/01 00:06:54;;;;;;;14.05;8.10;;;20.80;99.90;;;;;;5032695;28;20029;-80
2022/07/01 00:09:20;;;;;;;12.68;8.63;;;20.80;99.90;;;;;;5032914;28;20033;-79
2022/07/01 00:11:46;;;;;;;10.07;8.70;;;20.80;99.90;;;;;;5034469;28;20069;-79
2022/07/01 00:14:11;;;;;;;10.00;9.07;;;20.70;99.90;;;;;;5032808;28;20064;-79
2022/07/01 00:16:37;;;;;;;11.65;8.75;;;20.70;99.90;;;;;;5034343;28;20032;-79
2022/07/01 00:19:03;;;;;;;14.13;9.82;;;20.70;99.90;;;;;;5034309;28;20517;-79
2022/07/01 00:21:30;;;;;;;10.10;7.85;;;20.80;99.90;;;;;;5032488;28;20029;-79
2022/07/01 00:23:56;;;;;;;12.35;9.07;;;20.80;99.90;;;;;;5034272;28;20040;-78
2022/07/01 00:26:22;;;;;;;8.57;7.72;;;20.90;99.90;;;;;;5032676;28;20025;-79
2022/07/01 00:28:47;;;;;;;8.15;7.28;;;21.00;99.90;;;;;;5032672;28;20034;-79
2022/07/01 00:31:13;;;;;;;9.88;7.68;;;21.00;99.90;;;;;;5032895;28;20055;-79
2022/07/01 00:33:38;;;;;;;8.05;7.35;;;21.10;99.90;;;;;;5032599;28;20037;-79
2022/07/01 00:36:04;;;;;;;9.70;8.07;;;21.10;99.90;;;;;;5033838;28;20033;-79
2022/07/01 00:38:30;;;;;;;8.05;7.22;;;21.10;99.90;;;;;;5032896;28;20037;-79
2022/07/01 00:40:56;;;;;;;9.02;8.18;;;21.10;99.90;;;;;;5032557;28;20528;-79
2022/07/01 00:43:24;;;;;;;9.10;7.47;;;21.20;99.90;;;;;;5033778;28;20108;-79
2022/07/01 00:45:50;;;;;;;9.60;8.45;;;21.20;99.90;;;;;;5032458;28;20030;-79
2022/07/01 00:48:17;;;;;;;8.75;7.78;;;21.20;99.90;;;;;;5033712;28;20033;-79
2022/07/01 00:50:44;;;;;;;8.95;7.68;;;21.20;99.90;;;;;;5032375;28;20485;-79
2022/07/01 00:53:10;;;;;;;7.90;7.07;;;21.30;99.90;;;;;;5032361;28;20029;-79
2022/07/01 00:55:35;;;;;;;9.20;7.82;;;21.30;99.90;;;;;;5032507;28;20026;-79
2022/07/01 00:58:01;;;;;;;8.30;7.57;;;21.30;99.90;;;;;;5032372;28;20056;-79
2022/07/01 01:00:27;;;;;;;9.50;7.68;;;21.30;99.90;;;;;;5033517;28;20458;-79
2022/07/01 01:02:53;;;;;;;10.65;8.02;;;21.30;99.90;;;;;;5032292;28;20075;-79
2022/07/01 01:05:22;;;;;;;9.43;8.02;;;21.40;99.90;;;;;;5033579;28;20026;-79
2022/07/01 01:07:49;;;;;;;;;;;21.30;99.90;;;;;;5033677;28;20104;-79
2022/07/01 01:10:15;;;;;;;7.93;7.22;;;21.30;99.90;;;;;;5032974;28;19905;-79
2022/07/01 01:12:41;;;;;;;8.63;7.82;;;21.20;99.90;;;;;;5033386;28;20474;-79
2022/07/01 01:15:07;;;;;;;9.18;7.70;;;21.20;99.90;;;;;;5033504;28;20450;-79
2022/07/01 01:17:33;;;;;;;8.48;7.63;;;21.10;99.90;;;;;;5031894;28;20128;-79
2022/07/01 01:19:58;;;;;;;9.85;8.10;;;21.10;99.90;;;;;;5032150;28;20040;-79
2022/07/01 01:22:24;;;;;;;15.23;9.18;;;21.00;99.90;;;;;;5033423;28;20029;-79
2022/07/01 01:24:50;;;;;;;10.50;7.90;;;21.00;99.90;;;;;;5031867;28;20076;-79
2022/07/01 01:27:16;;;;;;;9.80;7.80;;;21.00;99.90;;;;;;5032130;28;20080;-79
2022/07/01 01:29:43;;;;;;;10.85;8.18;;;21.00;99.90;;;;;;5033489;28;20028;-79
2022/07/01 01:32:09;;;;;;;11.93;7.70;;;20.90;99.90;;;;;;5032971;28;20029;-79
2022/07/01 01:34:37;;;;;;;9.32;7.63;;;20.90;99.90;;;;;;5032144;28;20052;-79
2022/07/01 01:37:05;;;;;;;9.23;8.07;;;20.90;99.90;;;;;;5033312;28;20080;-79
2022/07/01 01:39:30;;;;;;;8.75;7.93;;;20.90;99.90;;;;;;5031968;28;20049;-79
2022/07/01 01:41:56;;;;;;;9.00;8.10;;;20.80;99.90;;;;;;5032163;28;20446;-79
2022/07/01 01:44:22;;;;;;;9.40;8.40;;;20.80;99.90;;;;;;5036897;28;20026;-78
2022/07/01 01:46:47;;;;;;;10.50;8.07;;;20.80;99.90;;;;;;5036980;28;20036;-79
2022/07/01 01:49:13;;;;;;;9.88;7.90;;;20.90;99.90;;;;;;5035629;28;20060;-78
2022/07/01 01:51:39;;;;;;;11.35;8.40;;;20.90;99.90;;;;;;5036391;28;20045;-79
2022/07/01 01:54:04;;;;;;;8.27;7.53;;;20.90;99.90;;;;;;5035439;28;20021;-79
2022/07/01 01:56:30;;;;;;;14.27;7.50;;;20.90;99.90;;;;;;5035167;28;20025;-79
2022/07/01 01:58:57;;;;;;;8.63;7.75;;;20.90;99.90;;;;;;5036710;28;20425;-79
2022/07/01 02:01:22;;;;;;;9.52;7.85;;;21.00;99.90;;;;;;5036844;28;20033;-79
2022/07/01 02:03:50;;;;;;;8.38;7.57;;;21.00;99.90;;;;;;5036533;28;20072;-79
2022/07/01 02:06:16;;;;;;;10.35;7.25;;;21.10;99.90;;;;;;5036671;28;20026;-79
2022/07/01 02:08:42;;;;;;;8.55;7.00;;;21.10;99.90;;;;;;5036184;28;20125;-79
2022/07/01 02:11:08;;;;;;;8.90;6.70;;;21.10;99.90;;;;;;5036339;28;20440;-78
2022/07/01 02:13:35;;;;;;;8.05;6.50;;;21.20;99.90;;;;;;5035218;28;20049;-78
2022/07/01 02:16:01;;;;;;;7.10;6.40;;;21.20;99.90;;;;;;5035024;28;20025;-79
2022/07/01 02:18:27;;;;;;;6.75;6.15;;;21.30;99.90;;;;;;5036310;28;20036;-79
2022/07/01 02:20:53;;;;;;;7.43;6.68;;;21.30;99.90;;;;;;5036236;28;20039;-79
2022/07/01 02:23:19;;;;;;;8.05;6.53;;;21.30;99.90;;;;;;5034920;28;20029;-79
2022/07/01 02:25:46;;;;;;;11.45;6.68;;;21.30;99.90;;;;;;5034887;28;20025;-77
2022/07/01 02:28:12;;;;;;;9.77;7.15;;;21.30;99.90;;;;;;5036017;28;20033;-76
2022/07/01 02:30:38;;;;;;;10.02;6.22;;;21.30;99.90;;;;;;5034668;28;20045;-77
2022/07/01 02:33:07;;;;;;;10.57;7.05;;;21.30;99.90;;;;;;5034985;28;20102;-76
2022/07/01 02:35:35;;;;;;;7.60;6.90;;;21.30;99.90;;;;;;5034807;28;20120;-79
2022/07/01 02:38:02;;;;;;;8.48;6.53;;;21.20;99.90;;;;;;5034552;28;20458;-79
2022/07/01 02:40:28;;;;;;;7.40;6.25;;;21.20;99.90;;;;;;5035887;28;20026;-79
2022/07/01 02:42:54;;;;;;;8.00;7.07;;;21.10;99.90;;;;;;5034532;28;20022;-79
2022/07/01 02:45:19;;;;;;;9.95;7.10;;;21.00;99.90;;;;;;5035725;28;20489;-79
2022/07/01 02:47:45;;;;;;;7.10;6.40;;;20.90;99.90;;;;;;5034375;28;20103;-79
2022/07/01 02:50:12;;;;;;;8.70;6.90;;;20.90;99.90;;;;;;5034457;28;20025;-79
2022/07/01 02:52:41;;;;;;;8.52;6.97;;;20.90;99.90;;;;;;5034323;28;20367;-79
2022/07/01 02:55:09;;;;;;;7.85;7.13;;;20.80;99.90;;;;;;5033384;28;20033;-79
2022/07/01 02:57:36;;;;;;;8.52;6.45;;;20.80;99.90;;;;;;5034051;28;20046;-79
2022/07/01 03:00:05;;;;;;;11.98;6.78;;;20.80;99.90;;;;;;5035769;28;20040;-79
2022/07/01 03:02:32;;;;;;;7.35;6.65;;;20.70;99.90;;;;;;5035390;28;20036;-79
2022/07/01 03:04:58;;;;;;;10.70;7.63;;;20.70;99.90;;;;;;5035319;28;20029;-79
2022/07/01 03:07:24;;;;;;;8.02;7.13;;;20.70;99.90;;;;;;5034080;28;20113;-79
2022/07/01 03:09:50;;;;;;;10.93;7.15;;;20.60;99.90;;;;;;5035267;28;20100;-78
2022/07/01 03:12:29;;;;;;;10.93;7.53;;;20.60;99.90;;;;;;5033902;28;20485;-79
2022/07/01 03:14:57;;;;;;;11.25;7.68;;;20.60;99.90;;;;;;5035245;28;20032;-80
2022/07/01 03:17:24;;;;;;;14.98;7.38;;;20.50;99.90;;;;;;5035315;28;20034;-79
2022/07/01 03:19:51;;;;;;;8.25;7.55;;;20.50;99.90;;;;;;5034209;28;20033;-79
2022/07/01 03:22:17;;;;;;;7.40;6.65;;;20.50;99.90;;;;;;5033801;28;20029;-79
2022/07/01 03:24:43;;;;;;;10.90;7.25;;;20.50;99.90;;;;;;5033819;28;20083;-79
2022/07/01 03:27:09;;;;;;;7.20;6.18;;;20.50;99.90;;;;;;5033706;28;20453;-79
2022/07/01 03:29:35;;;;;;;7.70;6.90;;;20.50;99.90;;;;;;5033628;28;20022;-79
2022/07/01 03:32:01;;;;;;;9.23;7.30;;;20.50;99.90;;;;;;5033792;28;20033;-79
2022/07/01 03:34:26;;;;;;;6.70;6.10;;;20.50;99.90;;;;;;5033559;28;20033;-79
2022/07/01 03:36:52;;;;;;;7.32;6.53;;;20.50;99.90;;;;;;5033615;28;20362;-79
2022/07/01 03:39:18;;;;;;;12.68;7.25;;;20.50;99.90;;;;;;5034724;28;20052;-79
2022/07/01 03:41:44;;;;;;;9.02;6.47;;;20.50;99.90;;;;;;5033393;28;20068;-79
2022/07/01 03:44:09;;;;;;;7.82;6.85;;;20.50;99.90;;;;;;5034613;28;20071;-80
2022/07/01 03:46:35;;;;;;;9.80;6.63;;;20.50;99.90;;;;;;5033378;28;20351;-79
2022/07/01 03:49:02;;;;;;;8.95;7.15;;;20.50;99.90;;;;;;5034549;28;20446;-79
2022/07/01 03:51:28;;;;;;;7.97;6.20;;;20.50;99.90;;;;;;5033071;28;20033;-79
2022/07/01 03:56:37;;;;;;;9.95;6.03;;;20.50;99.90;;;;;;5034313;28;20117;-79
2022/07/01 03:59:03;;;;;;;9.23;6.20;;;20.60;99.90;;;;;;5033146;28;20041;-79
2022/07/01 04:01:29;;;;;;;10.30;6.20;;;20.60;99.90;;;;;;5034377;28;20453;-79
2022/07/01 04:03:54;;;;;;;6.40;5.80;;;20.60;99.90;;;;;;5034329;28;20032;-83
2022/07/01 04:06:20;;;;;;;7.90;6.28;;;20.70;99.90;;;;;;5034097;28;20477;-61
2022/07/01 04:08:48;;;;;;;7.18;5.88;;;20.70;99.90;;;;;;5034188;28;20022;-62
2022/07/01 04:11:15;;;;;;;8.50;6.25;;;20.80;99.90;;;;;;5034021;28;20086;-61
2022/07/01 04:13:40;;;;;;;6.82;5.85;;;20.80;99.90;;;;;;5034078;28;20049;-61
2022/07/01 04:16:07;;;;;;;6.55;5.80;;;21.00;99.90;;;;;;5034325;28;20097;-61
2022/07/01 04:18:33;;;;;;;7.32;4.88;;;21.00;99.90;;;;;;5034170;28;20097;-61
2022/07/01 04:23:43;;;;;;;5.53;4.72;;;21.10;99.90;;;;;;5034037;28;20039;-61
2022/07/01 04:26:09;;;;;;;6.07;5.10;;;21.20;99.90;;;;;;5034104;28;20053;-61
2022/07/01 04:28:35;;;;;;;6.35;4.50;;;21.20;99.90;;;;;;5033944;28;20049;-61
2022/07/01 04:31:00;;;;;;;4.75;4.35;;;21.30;99.90;;;;;;5033670;28;20116;-61
2022/07/01 04:33:26;;;;;;;5.38;4.68;;;21.40;99.90;;;;;;5033840;28;20115;-62
2022/07/01 04:35:52;;;;;;;4.85;4.30;;;21.50;99.90;;;;;;5034122;28;20030;-61
2022/07/01 04:38:18;;;;;;;6.53;4.70;;;21.60;99.90;;;;;;5034020;28;20060;-61
2022/07/01 04:41:58;;;;;;;5.57;5.07;;;21.70;99.90;;;;;;5033732;28;20025;-62
2022/07/01 04:43:29;;;;;;;5.80;4.82;;;21.80;99.90;;;;;;5033638;28;20425;-59
2022/07/01 04:45:55;;;;;;;6.53;4.95;;;22.00;99.90;;;;;;5033891;28;20025;-62
2022/07/01 04:48:21;;;;;;;7.90;5.07;;;22.20;99.90;;;;;;5033616;28;20053;-62
2022/07/01 04:50:47;;;;;;;5.68;3.95;;;22.40;99.90;;;;;;5033533;28;20029;-61
2022/07/01 04:53:13;;;;;;;4.28;3.88;;;22.60;99.90;;;;;;5033500;28;20025;-59
2022/07/01 04:55:39;;;;;;;3.80;3.50;;;22.80;99.90;;;;;;5033826;28;20109;-59
2022/07/01 04:58:05;;;;;;;6.50;3.70;;;23.00;99.90;;;;;;5033129;28;20072;-60
2022/07/01 05:00:30;;;;;;;4.10;3.03;;;23.20;99.90;;;;;;5033940;28;20025;-83
2022/07/01 05:02:56;;;;;;;3.10;2.50;;;23.40;99.90;;;;;;5033452;28;20030;-82
2022/07/01 05:05:21;;;;;;;4.22;2.63;;;23.40;99.90;;;;;;5034291;28;20028;-83
2022/07/01 05:07:47;;;;;;;2.90;1.80;;;23.50;99.90;;;;;;5033282;28;20064;-83
2022/07/01 05:10:13;;;;;;;2.40;1.60;;;23.60;99.90;;;;;;5034474;28;20238;-83
2022/07/01 05:12:39;;;;;;;2.30;1.20;;;23.70;99.90;;;;;;5034043;28;20492;-84
2022/07/01 05:15:06;;;;;;;4.68;1.30;;;23.70;99.90;;;;;;5033997;28;20028;-84
2022/07/01 05:23:00;;;;;;;2.72;0.60;;;23.40;99.90;;;;;;5037989;28;20397;-87
2022/07/01 05:25:26;;;;;;;2.58;0.80;;;23.40;99.90;;;;;;5036859;28;20025;-86
2022/07/01 05:27:52;;;;;;;1.73;0.85;;;23.30;99.90;;;;;;5038034;28;20025;-85
2022/07/01 05:30:18;;;;;;;2.05;0.75;;;23.30;99.90;;;;;;5037926;28;20029;-85
2022/07/01 05:32:43;;;;;;;0.77;0.75;;;23.40;99.90;;;;;;5037758;28;20041;-86
2022/07/01 05:35:09;;;;;;;2.20;0.63;;;23.30;99.90;;;;;;5037722;28;20468;-86
2022/07/01 05:37:34;;;;;;;8.02;0.52;;;23.30;99.90;;;;;;5037878;28;20524;-86
2022/07/01 05:40:00;;;;;;;3.72;0.63;;;23.20;99.90;;;;;;5037324;28;20029;-85
2022/07/01 05:42:25;;;;;;;3.13;0.93;;;23.20;99.90;;;;;;5037395;28;20022;-86
2022/07/01 05:44:51;;;;;;;1.38;0.98;;;23.10;99.90;;;;;;5036160;28;20048;-85
2022/07/01 05:47:17;;;;;;;2.55;0.50;;;23.10;99.90;;;;;;5037207;28;20045;-86
2022/07/01 05:49:42;;;;;;;1.75;0.60;;;23.10;99.90;;;;;;5037514;28;20083;-86
2022/07/01 05:52:08;;;;;;;1.73;0.90;;;23.10;99.90;;;;;;5037574;28;20044;-86
2022/07/01 05:54:33;;;;;;;3.13;0.85;;;23.10;99.90;;;;;;5037332;28;20040;-86
2022/07/01 05:56:59;;;;;;;2.47;0.85;;;23.10;99.90;;;;;;5037387;28;20375;-85
2022/07/01 05:59:25;;;;;;;1.83;0.90;;;23.10;99.90;;;;;;5037230;28;20480;-84
2022/07/01 06:01:50;;;;;;;1.08;0.75;;;23.20;99.90;;;;;;5037375;28;20029;-85
2022/07/01 06:04:16;;;;;;;1.52;1.23;;;23.10;99.90;;;;;;5037374;28;20437;-85
2022/07/01 06:06:42;;;;;;;1.52;0.95;;;23.20;99.90;;;;;;5037427;28;20025;-87
2022/07/01 06:09:08;;;;;;;2.88;1.10;;;23.20;99.90;;;;;;5036160;28;20454;-85
2022/07/01 06:11:33;;;;;;;4.35;1.15;;;23.30;99.90;;;;;;5036819;28;20088;-85
2022/07/01 06:13:59;;;;;;;2.25;1.23;;;23.20;99.90;;;;;;5036205;28;20032;-87
2022/07/01 06:16:24;;;;;;;1.55;1.20;;;23.20;99.90;;;;;;5037132;28;20085;-87
2022/07/01 06:18:50;;;;;;;4.05;1.38;;;23.30;99.90;;;;;;5037204;28;20040;-85
2022/07/01 06:21:16;;;;;;;4.05;1.50;;;23.30;99.90;;;;;;5036926;28;20441;-87
2022/07/01 06:23:42;;;;;;;2.10;1.40;;;23.30;99.90;;;;;;5036369;28;20029;-87
2022/07/01 06:26:08;;;;;;;2.72;1.52;;;23.50;99.90;;;;;;5036875;28;20052;-87
2022/07/01 06:28:35;;;;;;;3.75;2.08;;;23.50;99.90;;;;;;5036769;28;20071;-85
2022/07/01 06:31:00;;;;;;;4.15;1.77;;;23.80;99.90;;;;;;5036861;28;20244;-85
2022/07/01 06:33:29;;;;;;;6.65;2.83;;;24.00;99.90;;;;;;5037034;28;20499;-86
2022/07/01 06:35:55;;;;;;;4.57;1.98;;;24.20;99.90;;;;;;5035840;28;20025;-86
2022/07/01 06:38:20;;;;;;;4.05;1.88;;;24.30;99.90;;;;;;5036776;28;20036;-86
2022/07/01 06:41:26;;;;;;;4.53;2.03;;;24.50;99.90;;;;;;5035701;28;20032;-86
2022/07/01 06:43:32;;;;;;;2.90;1.33;;;24.50;99.90;;;;;;5036692;28;20029;-84
2022/07/01 06:45:57;;;;;;;2.47;1.77;;;24.60;99.90;;;;;;5035931;28;20351;-85
2022/07/01 06:48:23;;;;;;;3.85;2.00;;;24.60;99.90;;;;;;5035403;28;20033;-85
2022/07/01 06:50:48;;;;;;;3.65;1.60;;;24.70;99.90;;;;;;5036281;28;20025;-85
2022/07/01 06:53:14;;;;;;;2.92;1.90;;;24.90;99.90;;;;;;5035469;28;20561;-84
2022/07/01 06:55:40;;;;;;;3.40;1.98;;;25.00;99.90;;;;;;5034994;28;20117;-84
2022/07/01 06:58:05;;;;;;;3.90;1.77;;;25.20;99.90;;;;;;5035743;28;20049;-84
2022/07/01 07:00:31;;;;;;;3.17;1.65;;;25.50;99.90;;;;;;5036074;28;20100;-84
2022/07/01 07:02:57;;;;;;;5.10;1.90;;;25.50;99.90;;;;;;5036012;28;20419;-83
2022/07/01 07:05:22;;;;;;;5.15;2.90;;;25.70;99.90;;;;;;5036218;28;20513;-83
2022/07/01 07:07:48;;;;;;;2.65;1.83;;;25.90;99.90;;;;;;5035741;28;20450;-83
2022/07/01 07:10:13;;;;;;;3.10;2.00;;;25.90;99.90;;;;;;5035783;28;20151;-82
2022/07/01 07:12:39;;;;;;;2.33;1.88;;;25.90;99.90;;;;;;5034270;28;20057;-82
2022/07/01 07:15:05;;;;;;;3.63;1.92;;;26.00;99.90;;;;;;5035804;28;20036;-83
2022/07/01 07:17:31;;;;;;;6.18;2.10;;;26.10;99.90;;;;;;5035568;28;20037;-82
2022/07/01 07:19:56;;;;;;;4.05;2.22;;;26.30;99.90;;;;;;5033983;28;20389;-81
2022/07/01 07:22:23;;;;;;;2.40;2.17;;;26.50;99.90;;;;;;5035521;28;20115;-82
2022/07/01 07:24:49;;;;;;;3.78;2.30;;;26.70;99.40;;;;;;5034335;28;20408;-82
2022/07/01 07:27:14;;;;;;;4.78;2.55;;;26.80;98.80;;;;;;5035226;28;20017;-81
2022/07/01 07:29:40;;;;;;;6.35;2.50;;;26.80;98.90;;;;;;5035211;28;20030;-81
2022/07/01 07:32:06;;;;;;;4.82;2.45;;;26.90;98.60;;;;;;5035163;28;20045;-81
2022/07/01 07:34:31;;;;;;;3.47;2.33;;;27.20;98.50;;;;;;5035207;28;20025;-81
2022/07/01 07:36:57;;;;;;;5.28;2.10;;;27.40;97.30;;;;;;5035425;28;20028;-83
2022/07/01 07:39:23;;;;;;;4.22;2.45;;;27.60;96.80;;;;;;5034215;28;20026;-82
2022/07/01 07:41:49;;;;;;;2.58;2.28;;;27.70;96.80;;;;;;5034747;28;20108;-83
2022/07/01 07:44:15;;;;;;;5.03;2.50;;;27.90;96.10;;;;;;5034325;28;20381;-83
2022/07/01 07:46:41;;;;;;;2.70;2.08;;;27.90;95.40;;;;;;5034516;28;20022;-81
2022/07/01 07:49:06;;;;;;;5.35;2.13;;;27.90;95.00;;;;;;5034528;28;20143;-80
2022/07/01 07:51:32;;;;;;;5.88;3.25;;;28.10;94.80;;;;;;5034397;28;20062;-80
2022/07/01 07:53:57;;;;;;;5.22;2.38;;;28.10;94.30;;;;;;5034426;28;20075;-80
2022/07/01 07:56:23;;;;;;;3.78;2.60;;;28.10;93.90;;;;;;5034348;28;20032;-80
2022/07/01 07:58:49;;;;;;;6.32;2.50;;;28.10;93.00;;;;;;5034470;28;20365;-79
2022/07/01 08:01:14;;;;;;;3.53;2.50;;;28.20;93.50;;;;;;5034237;28;20030;-80
2022/07/01 08:03:40;;;;;;;3.92;2.40;;;28.30;93.10;;;;;;5032705;28;20056;-79
2022/07/01 08:06:06;;;;;;;3.83;2.47;;;28.40;92.70;;;;;;5034152;28;20026;-79
2022/07/01 08:08:32;;;;;;;4.43;2.78;;;28.30;92.50;;;;;;5034174;28;20382;-79
2022/07/01 08:10:57;;;;;;;4.10;2.40;;;28.70;91.60;;;;;;5033993;28;20514;-79
2022/07/01 08:13:23;;;;;;;6.00;2.17;;;29.10;91.50;;;;;;5032890;28;20029;-79
2022/07/01 08:15:49;;;;;;;3.28;2.60;;;29.30;90.60;;;;;;5032731;28;20030;-80
2022/07/01 08:18:14;;;;;;;6.28;2.15;;;29.40;90.40;;;;;;5032773;28;20432;-80
2022/07/01 08:20:40;;;;;;;5.45;2.40;;;29.70;89.20;;;;;;5033832;28;20030;-80
2022/07/01 08:23:06;;;;;;;2.58;2.40;;;29.60;87.80;;;;;;5032861;28;20032;-80
2022/07/01 08:25:31;;;;;;;2.78;2.42;;;29.60;87.90;;;;;;5033832;28;20033;-81
2022/07/01 08:27:57;;;;;;;3.22;2.30;;;29.10;86.10;;;;;;5032907;28;20465;-81
2022/07/01 08:30:23;;;;;;;5.25;2.55;;;29.00;87.50;;;;;;5033848;28;20022;-80
2022/07/01 08:32:49;;;;;;;2.50;2.30;;;28.80;86.20;;;;;;5033838;28;20037;-80
2022/07/01 08:35:14;;;;;;;4.30;2.67;;;28.30;86.30;;;;;;5033970;28;20031;-80
2022/07/01 08:37:40;;;;;;;6.47;2.50;;;28.10;87.80;;;;;;5032568;28;20355;-80
2022/07/01 08:40:06;;;;;;;5.70;2.72;;;28.60;88.80;;;;;;5033753;28;20025;-81
2022/07/01 08:42:32;;;;;;;3.95;2.55;;;28.80;85.20;;;;;;5033547;28;20087;-81
2022/07/01 08:44:57;;;;;;;5.28;2.80;;;28.80;84.70;;;;;;5034039;28;20454;-81
2022/07/01 08:47:23;;;;;;;4.90;2.67;;;28.90;83.30;;;;;;5034035;28;20422;-81
2022/07/01 08:49:49;;;;;;;2.70;2.50;;;28.60;84.60;;;;;;5033737;28;20100;-80
2022/07/01 08:52:15;;;;;;;3.33;2.70;;;28.60;83.40;;;;;;5032540;28;20034;-80
2022/07/01 08:54:41;;;;;;;6.15;2.38;;;28.40;84.30;;;;;;5038008;28;20049;-79
2022/07/01 08:57:07;;;;;;;2.75;2.53;;;28.40;85.20;;;;;;5037522;28;20489;-80
2022/07/01 08:59:33;;;;;;;4.78;2.80;;;28.50;85.30;;;;;;5036463;28;20099;-79
2022/07/01 09:02:01;;;;;;;6.05;2.63;;;28.30;86.30;;;;;;5037385;28;20366;-80
2022/07/01 09:04:27;;;;;;;5.82;2.50;;;28.40;85.20;;;;;;5037900;28;20088;-80
2022/07/01 09:07:03;;;;;;;10.93;3.35;;;28.60;85.40;;;;;;5036353;28;20462;-79
2022/07/01 09:09:33;;;;;;;5.07;2.60;;;28.50;85.00;;;;;;5037582;28;20037;-79
2022/07/01 09:11:58;;;;;;;7.63;2.80;;;28.90;84.70;;;;;;5036240;28;20457;-79
2022/07/01 09:14:26;;;;;;;5.43;2.80;;;29.50;82.90;;;;;;5036435;28;20032;-79
2022/07/01 09:17:06;;;;;;;4.82;2.65;;;29.70;81.00;;;;;;5036126;28;20117;-79
2022/07/01 09:19:36;;;;;;;4.72;2.47;;;30.00;79.30;;;;;;5037692;28;20028;-80
2022/07/01 09:22:04;;;;;;;3.45;2.80;;;30.60;77.70;;;;;;5037319;28;20118;-79
2022/07/01 09:24:34;;;;;;;7.23;2.80;;;31.30;75.50;;;;;;5037415;28;20025;-80
2022/07/01 09:27:11;;;;;;;3.22;2.58;;;31.00;73.10;;;;;;5037090;28;20032;-79
2022/07/01 09:29:50;;;;;;;5.97;2.80;;;30.80;74.60;;;;;;5035982;28;20028;-79
2022/07/01 09:32:20;;;;;;;6.35;2.78;;;30.40;74.70;;;;;;5037066;28;20029;-79
2022/07/01 09:34:48;;;;;;;4.63;2.58;;;30.80;75.30;;;;;;5036724;28;20033;-80
2022/07/01 09:37:19;;;;;;;5.30;2.78;;;31.30;74.00;;;;;;5037070;28;20041;-80
2022/07/01 09:39:46;;;;;;;3.03;2.83;;;31.60;72.10;;;;;;5037237;28;20028;-79
2022/07/01 09:42:12;;;;;;;3.70;2.40;;;31.00;71.90;;;;;;5037067;28;20057;-79
2022/07/01 09:44:57;;;;;;;4.80;2.90;;;30.90;72.50;;;;;;5036931;28;20025;-80
2022/07/01 09:47:24;;;;;;;2.80;2.60;;;31.40;71.70;;;;;;5035514;28;20469;-80
2022/07/01 09:49:51;;;;;;;4.13;2.42;;;31.60;70.50;;;;;;5037212;28;20025;-79
2022/07/01 09:52:17;;;;;;;2.78;2.58;;;31.10;69.20;;;;;;5036757;28;20539;-79
2022/07/01 09:54:47;;;;;;;2.47;2.28;;;30.80;70.90;;;;;;5035324;28;20035;-79
2022/07/01 09:57:13;;;;;;;4.07;2.45;;;31.10;69.90;;;;;;5036549;28;20041;-79
2022/07/01 09:59:38;;;;;;;4.28;2.30;;;31.10;69.50;;;;;;5036603;28;20036;-80
2022/07/01 10:02:07;;;;;;;2.70;2.47;;;31.50;68.50;;;;;;5036472;28;20096;-80
2022/07/01 10:04:34;;;;;;;3.42;2.40;;;32.00;67.40;;;;;;5034832;28;20425;-79
2022/07/01 10:07:05;;;;;;;3.25;2.17;;;31.60;65.90;;;;;;5036061;28;20033;-79
2022/07/01 10:09:48;;;;;;;2.22;2.03;;;31.40;67.70;;;;;;5036724;28;20021;-79
2022/07/01 10:12:32;;;;;;;2.30;2.10;;;31.60;67.20;;;;;;5036030;28;20045;-79
2022/07/01 10:14:59;;;;;;;4.00;2.67;;;31.80;66.80;;;;;;5036693;28;20079;-79
2022/07/01 10:17:29;;;;;;;5.78;2.17;;;31.50;66.60;;;;;;5035912;28;20025;-80
2022/07/01 10:19:57;;;;;;;2.78;2.40;;;31.50;67.90;;;;;;5035321;28;20037;-80
2022/07/01 10:22:29;;;;;;;1.80;1.70;;;31.80;66.80;;;;;;5035866;28;20143;-80
2022/07/01 10:25:16;;;;;;;5.70;2.90;;;31.90;65.20;;;;;;5034815;28;20361;-80
2022/07/01 10:27:42;;;;;;;6.13;2.28;;;31.80;65.00;;;;;;5035849;28;20369;-80
2022/07/01 10:30:14;;;;;;;3.92;2.22;;;32.30;65.50;;;;;;5035686;28;20029;-80
2022/07/01 10:32:48;;;;;;;5.15;2.08;;;32.50;64.60;;;;;;5034528;28;20060;-79
2022/07/01 10:35:14;;;;;;;2.78;2.58;;;32.50;64.10;;;;;;5035904;28;20026;-80
2022/07/01 10:38:00;;;;;;;4.85;2.05;;;32.30;63.50;;;;;;5035169;28;20084;-80
2022/07/01 10:40:45;;;;;;;2.05;1.90;;;32.30;65.20;;;;;;5035941;28;20026;-80
2022/07/01 10:43:11;;;;;;;4.00;2.08;;;32.70;63.50;;;;;;5036033;28;20074;-79
2022/07/01 10:45:45;;;;;;;3.33;1.90;;;32.00;63.90;;;;;;5035017;28;20036;-80
2022/07/01 10:48:21;;;;;;;2.33;2.03;;;32.20;64.70;;;;;;5034404;28;20473;-80
2022/07/01 10:50:50;;;;;;;2.72;2.05;;;32.00;65.10;;;;;;5034416;28;20112;-80
2022/07/01 10:53:16;;;;;;;2.42;1.95;;;32.10;65.30;;;;;;5034498;28;20022;-80
2022/07/01 10:55:46;;;;;;;2.35;1.95;;;32.70;64.50;;;;;;5034737;28;20053;-81
2022/07/01 10:58:12;;;;;;;3.53;1.80;;;33.30;63.30;;;;;;5035813;28;20046;-80
2022/07/01 11:00:44;;;;;;;1.77;1.63;;;33.30;61.80;;;;;;5035263;28;20113;-74
2022/07/01 11:03:33;;;;;;;2.08;1.85;;;33.30;65.00;;;;;;5034865;28;20026;-73
2022/07/01 11:05:59;;;;;;;2.80;2.20;;;33.30;63.80;;;;;;5035511;28;20452;-74
2022/07/01 11:08:25;;;;;;;4.47;2.35;;;34.20;62.00;;;;;;5033622;28;20060;-74
2022/07/01 11:10:54;;;;;;;4.07;1.98;;;34.30;60.40;;;;;;5035201;28;20026;-73
2022/07/01 11:13:20;;;;;;;3.05;1.80;;;34.90;58.90;;;;;;5035300;28;20053;-73
2022/07/01 11:15:47;;;;;;;3.58;1.65;;;35.30;58.10;;;;;;5034073;28;20068;-73
2022/07/01 11:18:14;;;;;;;3.17;1.80;;;34.90;57.00;;;;;;5033861;28;20030;-73
2022/07/01 11:20:40;;;;;;;2.80;2.28;;;35.70;57.50;;;;;;5035090;28;20033;-74
2022/07/01 11:23:05;;;;;;;10.05;2.20;;;35.90;55.80;;;;;;5035170;28;20492;-74
2022/07/01 11:25:32;;;;;;;4.07;1.77;;;35.60;54.20;;;;;;5035123;28;20025;-74
2022/07/01 11:27:58;;;;;;;2.72;1.63;;;34.90;56.50;;;;;;5035019;28;20508;-75
2022/07/01 11:30:24;;;;;;;3.65;1.95;;;34.80;56.20;;;;;;5035133;28;20029;-74
2022/07/01 11:32:55;;;;;;;3.60;1.77;;;35.10;56.30;;;;;;5034491;28;20029;-75
2022/07/01 11:41:08;;;;;;;2.22;2.00;;;35.40;53.50;;;;;;5034581;28;20478;-75
2022/07/01 11:43:37;;;;;;;2.22;1.80;;;35.20;54.10;;;;;;5034687;28;20047;-75
2022/07/01 11:46:04;;;;;;;;;;;35.40;53.60;;;;;;5033958;28;20116;-75
2022/07/01 11:48:58;;;;;;;2.35;2.10;;;35.30;54.70;;;;;;5034512;28;19912;-74
2022/07/01 11:51:29;;;;;;;2.03;1.85;;;35.40;53.60;;;;;;5034428;28;20076;-74
2022/07/01 11:53:55;;;;;;;2.70;1.80;;;35.50;53.90;;;;;;5034827;28;20059;-74
2022/07/01 11:56:29;;;;;;;2.05;1.83;;;35.80;53.90;;;;;;5033923;28;20029;-74
2022/07/01 11:58:56;;;;;;;2.35;1.80;;;35.50;54.00;;;;;;5034386;28;20048;-74
2022/07/01 12:01:23;;;;;;;3.25;2.20;;;35.20;53.80;;;;;;5032957;28;20025;-75
2022/07/01 12:03:50;;;;;;;3.63;2.45;;;35.20;53.70;;;;;;5032650;28;20104;-75
2022/07/01 12:06:18;;;;;;;4.20;2.40;;;35.20;53.60;;;;;;5034412;28;20080;-75
2022/07/01 12:08:48;;;;;;;2.20;2.00;;;35.10;53.10;;;;;;5034413;28;20033;-75
2022/07/01 12:11:15;;;;;;;2.92;1.58;;;35.30;52.70;;;;;;5034045;28;20037;-78
2022/07/01 12:13:40;;;;;;;3.15;2.20;;;36.30;51.60;;;;;;5033479;28;20442;-81
2022/07/01 12:16:10;;;;;;;1.98;1.77;;;35.60;51.50;;;;;;5034736;28;20109;-82
2022/07/01 12:18:36;;;;;;;2.63;1.85;;;36.30;51.90;;;;;;5034039;28;20029;-81
2022/07/01 12:21:02;;;;;;;3.10;1.80;;;36.40;51.30;;;;;;5034116;28;20027;-79
2022/07/01 12:23:28;;;;;;;6.03;2.05;;;35.10;53.00;;;;;;5034191;28;20021;-81
2022/07/01 12:25:54;;;;;;;2.42;1.67;;;35.70;51.80;;;;;;5034025;28;20033;-80
2022/07/01 12:28:31;;;;;;;2.17;1.98;;;36.10;51.70;;;;;;5034398;28;20370;-74
2022/07/01 12:31:14;;;;;;;2.63;2.00;;;35.10;52.10;;;;;;5032552;28;20423;-71
2022/07/01 12:33:49;;;;;;;3.17;2.10;;;34.40;53.30;;;;;;5032600;28;20057;-71
2022/07/01 12:36:15;;;;;;;5.18;2.22;;;34.00;54.10;;;;;;5033692;28;20036;-71
2022/07/01 12:38:42;;;;;;;2.15;1.95;;;33.90;54.30;;;;;;5033876;28;20022;-71
2022/07/01 12:41:33;;;;;;;2.85;2.58;;;34.40;54.20;;;;;;5033665;28;20025;-69
2022/07/01 12:43:59;;;;;;;3.40;2.00;;;35.30;52.80;;;;;;5034023;28;20029;-65
2022/07/01 12:46:29;;;;;;;7.55;2.45;;;35.80;50.80;;;;;;5033534;28;20029;-64
2022/07/01 12:48:55;;;;;;;4.78;2.33;;;36.50;49.30;;;;;;5032241;28;20029;-68
2022/07/01 12:51:21;;;;;;;4.28;2.42;;;36.60;48.90;;;;;;5033215;28;20537;-69
2022/07/01 12:53:47;;;;;;;2.85;2.20;;;37.30;47.90;;;;;;5033566;28;20129;-68
2022/07/01 12:56:24;;;;;;;4.05;2.25;;;37.40;47.20;;;;;;5033591;28;20463;-68
2022/07/01 12:58:52;;;;;;;2.20;2.10;;;37.00;48.00;;;;;;5033648;28;20389;-68
2022/07/01 13:01:18;;;;;;;14.32;2.30;;;36.70;48.30;;;;;;5033598;28;20026;-69
2022/07/01 13:03:44;;;;;;;2.38;1.83;;;36.20;48.90;;;;;;5033801;28;20079;-68